sensor_id;sensor_type;location;lat;lon;timestamp;temperature;humidity
1534;DHT22;760;48.822;9.304;2023-04-25T04:05:23;9.00;99.90
1534;DHT22;760;48.822;9.304;2023-04-25T04:07:49;9.00;99.90
1534;DHT22;760;48.822;9.304;2023-04-25T04:10:15;9.00;99.90
1534;DHT22;760;48.822;9.304;2023-04-25T04:12:41;9.10;99.90
1534;DHT22;760;48.822;9.304;2023-04-25T04:15:07;9.10;99.90
1534;DHT22;760;48.822;9.304;2023-04-25T04:17:33;9.10;99.90
1534;DHT22;760;48.822;9.304;2023-04-25T04:19:59;9.10;99.90
1534;DHT22;760;48.822;9.304;2023-04-25T04:22:25;9.10;99.90
1534;DHT22;760;48.822;9.304;2023-04-25T04:24:51;9.10;99.90
1534;DHT22;760;48.822;9.304;2023-04-25T04:27:20;9.00;99.90
1534;DHT22;760;48.822;9.304;2023-04-25T04:29:46;9.00;99.90
1534;DHT22;760;48.822;9.304;2023-04-25T04:32:13;9.00;99.90
1534;DHT22;760;48.822;9.304;2023-04-25T04:34:39;8.90;99.90
1534;DHT22;760;48.822;9.304;2023-04-25T04:37:06;9.00;99.90
1534;DHT22;760;48.822;9.304;2023-04-25T04:39:33;9.00;99.90
1534;DHT22;760;48.822;9.304;2023-04-25T04:41:58;9.10;99.90
1534;DHT22;760;48.822;9.304;2023-04-25T04:44:25;9.10;99.90
1534;DHT22;760;48.822;9.304;2023-04-25T04:46:51;9.10;99.90
1534;DHT22;760;48.822;9.304;2023-04-25T04:49:17;9.20;99.90
1534;DHT22;760;48.822;9.304;2023-04-25T04:51:43;9.20;99.90
1534;DHT22;760;48.822;9.304;2023-04-25T04:54:12;9.20;99.90
1534;DHT22;760;48.822;9.304;2023-04-25T04:56:38;9.30;99.90
1534;DHT22;760;48.822;9.304;2023-04-25T04:59:03;9.40;99.90
1534;DHT22;760;48.822;9.304;2023-04-25T05:01:29;9.40;99.90
1534;DHT22;760;48.822;9.304;2023-04-25T05:03:57;9.40;99.90
1534;DHT22;760;48.822;9.304;2023-04-25T05:06:27;9.40;99.90
1534;DHT22;760;48.822;9.304;2023-04-25T05:08:54;9.50;99.90
1534;DHT22;760;48.822;9.304;2023-04-25T05:11:20;9.50;99.90
1534;DHT22;760;48.822;9.304;2023-04-25T05:13:46;9.60;99.90
1534;DHT22;760;48.822;9.304;2023-04-25T05:16:12;9.60;99.90
1534;DHT22;760;48.822;9.304;2023-04-25T05:18:39;9.60;99.90
1534;DHT22;760;48.822;9.304;2023-04-25T05:21:05;9.70;99.90
1534;DHT22;760;48.822;9.304;2023-04-25T05:23:32;9.60;99.90
1534;DHT22;760;48.822;9.304;2023-04-25T05:25:58;9.60;99.90
1534;DHT22;760;48.822;9.304;2023-04-25T05:28:24;9.60;99.90
1534;DHT22;760;48.822;9.304;2023-04-25T05:30:50;9.70;99.90
1534;DHT22;760;48.822;9.304;2023-04-25T05:33:15;9.70;99.90
1534;DHT22;760;48.822;9.304;2023-04-25T05:35:42;9.80;99.90
1534;DHT22;760;48.822;9.304;2023-04-25T05:38:07;10.00;99.90
1534;DHT22;760;48.822;9.304;2023-04-25T05:40:33;10.20;99.90
1534;DHT22;760;48.822;9.304;2023-04-25T05:42:59;10.30;99.90
1534;DHT22;760;48.822;9.304;2023-04-25T05:45:24;10.40;99.90
1534;DHT22;760;48.822;9.304;2023-04-25T05:47:50;10.40;99.90
1534;DHT22;760;48.822;9.304;2023-04-25T05:50:15;10.50;99.90
1534;DHT22;760;48.822;9.304;2023-04-25T05:52:41;10.50;99.90
1534;DHT22;760;48.822;9.304;2023-04-25T05:55:07;10.40;99.90
1534;DHT22;760;48.822;9.304;2023-04-25T05:57:33;10.40;99.90
1534;DHT22;760;48.822;9.304;2023-04-25T05:59:58;10.30;99.90
1534;DHT22;760;48.822;9.304;2023-04-25T06:02:24;10.20;99.90
1534;DHT22;760;48.822;9.304;2023-04-25T06:04:50;10.00;99.90
1534;DHT22;760;48.822;9.304;2023-04-25T06:07:16;10.00;99.90
1534;DHT22;760;48.822;9.304;2023-04-25T06:09:43;9.90;99.90
1534;DHT22;760;48.822;9.304;2023-04-25T06:12:08;9.90;99.90
1534;DHT22;760;48.822;9.304;2023-04-25T06:14:34;9.90;99.90
1534;DHT22;760;48.822;9.304;2023-04-25T06:17:00;9.80;99.90
1534;DHT22;760;48.822;9.304;2023-04-25T06:19:34;9.80;99.90
1534;DHT22;760;48.822;9.304;2023-04-25T06:22:01;9.90;99.90
1534;DHT22;760;48.822;9.304;2023-04-25T06:24:27;9.90;99.90
1534;DHT22;760;48.822;9.304;2023-04-25T06:26:53;10.00;99.90
1534;DHT22;760;48.822;9.304;2023-04-25T06:29:19;10.00;99.90
1534;DHT22;760;48.822;9.304;2023-04-25T06:31:45;10.10;99.90
1534;DHT22;760;48.822;9.304;2023-04-25T06:34:10;10.30;99.90
1534;DHT22;760;48.822;9.304;2023-04-25T06:36:36;10.50;99.90
1534;DHT22;760;48.822;9.304;2023-04-25T06:39:02;10.60;99.90
1534;DHT22;760;48.822;9.304;2023-04-25T06:41:27;10.90;99.90
1534;DHT22;760;48.822;9.304;2023-04-25T06:43:53;11.30;99.90
1534;DHT22;760;48.822;9.304;2023-04-25T06:46:19;11.60;99.90
1534;DHT22;760;48.822;9.304;2023-04-25T06:48:44;12.00;99.90
1534;DHT22;760;48.822;9.304;2023-04-25T06:51:10;12.30;99.90
1534;DHT22;760;48.822;9.304;2023-04-25T06:53:36;12.60;99.90
1534;DHT22;760;48.822;9.304;2023-04-25T06:56:01;12.70;99.90
1534;DHT22;760;48.822;9.304;2023-04-25T06:58:28;12.90;99.90
1534;DHT22;760;48.822;9.304;2023-04-25T07:00:54;13.00;99.90
1534;DHT22;760;48.822;9.304;2023-04-25T07:03:19;13.10;99.90
1534;DHT22;760;48.822;9.304;2023-04-25T07:05:45;13.20;99.90
1534;DHT22;760;48.822;9.304;2023-04-25T07:08:11;13.30;99.90
1534;DHT22;760;48.822;9.304;2023-04-25T07:10:37;13.30;99.90
1534;DHT22;760;48.822;9.304;2023-04-25T07:13:03;13.30;99.90
1534;DHT22;760;48.822;9.304;2023-04-25T07:15:28;13.20;99.90
1534;DHT22;760;48.822;9.304;2023-04-25T07:17:54;13.10;99.90
1534;DHT22;760;48.822;9.304;2023-04-25T07:20:19;13.10;99.90
1534;DHT22;760;48.822;9.304;2023-04-25T07:22:45;12.90;99.90
1534;DHT22;760;48.822;9.304;2023-04-25T07:25:11;12.80;99.90
1534;DHT22;760;48.822;9.304;2023-04-25T07:27:36;12.60;99.90
1534;DHT22;760;48.822;9.304;2023-04-25T07:30:03;12.50;99.90
1534;DHT22;760;48.822;9.304;2023-04-25T07:32:29;12.30;99.90
1534;DHT22;760;48.822;9.304;2023-04-25T07:34:55;12.00;99.90
1534;DHT22;760;48.822;9.304;2023-04-25T07:37:21;11.90;99.90
1534;DHT22;760;48.822;9.304;2023-04-25T07:39:46;11.60;99.90
1534;DHT22;760;48.822;9.304;2023-04-25T07:42:12;11.60;99.90
1534;DHT22;760;48.822;9.304;2023-04-25T07:44:38;11.50;99.90
1534;DHT22;760;48.822;9.304;2023-04-25T07:47:08;11.50;99.90
1534;DHT22;760;48.822;9.304;2023-04-25T07:49:35;11.50;99.90
1534;DHT22;760;48.822;9.304;2023-04-25T07:52:02;11.40;99.90
1534;DHT22;760;48.822;9.304;2023-04-25T07:54:28;11.40;99.90
1534;DHT22;760;48.822;9.304;2023-04-25T07:56:54;11.40;99.90
1534;DHT22;760;48.822;9.304;2023-04-25T07:59:20;11.30;99.90
1534;DHT22;760;48.822;9.304;2023-04-25T08:01:45;11.20;99.90
1534;DHT22;760;48.822;9.304;2023-04-25T08:04:11;11.10;99.90
1534;DHT22;760;48.822;9.304;2023-04-25T08:06:36;11.10;99.90
1534;DHT22;760;48.822;9.304;2023-04-25T08:09:02;10.90;99.90
1534;DHT22;760;48.822;9.304;2023-04-25T08:11:28;10.80;99.90
1534;DHT22;760;48.822;9.304;2023-04-25T08:13:54;10.70;99.90
1534;DHT22;760;48.822;9.304;2023-04-25T08:16:19;10.60;99.90
1534;DHT22;760;48.822;9.304;2023-04-25T08:18:45;10.40;99.90
1534;DHT22;760;48.822;9.304;2023-04-25T08:21:11;10.20;99.90
1534;DHT22;760;48.822;9.304;2023-04-25T08:23:37;10.00;99.90
1534;DHT22;760;48.822;9.304;2023-04-25T08:26:03;9.90;99.90
1534;DHT22;760;48.822;9.304;2023-04-25T08:28:30;9.80;99.90
1534;DHT22;760;48.822;9.304;2023-04-25T08:30:55;9.80;99.90
1534;DHT22;760;48.822;9.304;2023-04-25T08:33:21;9.80;99.90
1534;DHT22;760;48.822;9.304;2023-04-25T08:35:46;9.90;99.90
1534;DHT22;760;48.822;9.304;2023-04-25T08:38:12;9.90;99.90
1534;DHT22;760;48.822;9.304;2023-04-25T08:40:39;9.90;99.90
1534;DHT22;760;48.822;9.304;2023-04-25T08:43:07;9.90;99.90
1534;DHT22;760;48.822;9.304;2023-04-25T08:45:39;10.00;99.90
1534;DHT22;760;48.822;9.304;2023-04-25T08:48:11;10.00;99.90
1534;DHT22;760;48.822;9.304;2023-04-25T08:50:49;10.10;99.90
1534;DHT22;760;48.822;9.304;2023-04-25T08:53:16;10.20;99.90
1534;DHT22;760;48.822;9.304;2023-04-25T08:55:45;10.30;99.90
1534;DHT22;760;48.822;9.304;2023-04-25T08:58:12;10.30;99.90
1534;DHT22;760;48.822;9.304;2023-04-25T09:00:38;10.40;99.90
1534;DHT22;760;48.822;9.304;2023-04-25T09:03:04;10.30;99.90
1534;DHT22;760;48.822;9.304;2023-04-25T09:05:34;10.20;99.90
1534;DHT22;760;48.822;9.304;2023-04-25T09:08:01;10.00;99.90
1534;DHT22;760;48.822;9.304;2023-04-25T09:10:27;9.70;99.90
1534;DHT22;760;48.822;9.304;2023-04-25T09:15:29;9.10;99.90
1534;DHT22;760;48.822;9.304;2023-04-25T09:17:56;8.80;99.90
1534;DHT22;760;48.822;9.304;2023-04-25T09:20:22;8.60;99.90
1534;DHT22;760;48.822;9.304;2023-04-25T09:22:47;8.50;99.90
1534;DHT22;760;48.822;9.304;2023-04-25T09:25:13;8.40;99.90
1534;DHT22;760;48.822;9.304;2023-04-25T09:27:52;8.40;99.90
1534;DHT22;760;48.822;9.304;2023-04-25T09:30:18;8.30;99.90
1534;DHT22;760;48.822;9.304;2023-04-25T09:32:43;8.40;99.90
1534;DHT22;760;48.822;9.304;2023-04-25T09:35:10;8.40;99.90
1534;DHT22;760;48.822;9.304;2023-04-25T09:37:36;8.40;99.90
1534;DHT22;760;48.822;9.304;2023-04-25T09:40:05;8.40;99.90
1534;DHT22;760;48.822;9.304;2023-04-25T09:42:31;8.40;99.90
1534;DHT22;760;48.822;9.304;2023-04-25T09:45:00;8.40;99.90
1534;DHT22;760;48.822;9.304;2023-04-25T09:47:29;8.30;99.90
1534;DHT22;760;48.822;9.304;2023-04-25T09:49:54;8.30;99.90
1534;DHT22;760;48.822;9.304;2023-04-25T09:52:22;8.40;99.90
1534;DHT22;760;48.822;9.304;2023-04-25T09:54:49;8.40;99.90
1534;DHT22;760;48.822;9.304;2023-04-25T09:57:22;8.50;99.90
1534;DHT22;760;48.822;9.304;2023-04-25T09:59:50;8.50;99.90
1534;DHT22;760;48.822;9.304;2023-04-25T10:02:21;8.60;99.90
1534;DHT22;760;48.822;9.304;2023-04-25T10:04:52;8.60;99.90
1534;DHT22;760;48.822;9.304;2023-04-25T10:07:20;8.60;99.90
1534;DHT22;760;48.822;9.304;2023-04-25T10:09:49;8.60;99.90
1534;DHT22;760;48.822;9.304;2023-04-25T10:12:17;8.70;99.90
1534;DHT22;760;48.822;9.304;2023-04-25T10:14:44;8.70;99.90
1534;DHT22;760;48.822;9.304;2023-04-25T10:17:10;8.70;99.90
1534;DHT22;760;48.822;9.304;2023-04-25T10:19:37;8.70;99.90
1534;DHT22;760;48.822;9.304;2023-04-25T10:24:35;8.60;99.90
1534;DHT22;760;48.822;9.304;2023-04-25T10:27:02;8.50;99.90
1534;DHT22;760;48.822;9.304;2023-04-25T10:29:28;8.40;99.90
1534;DHT22;760;48.822;9.304;2023-04-25T10:31:54;8.40;99.90
1534;DHT22;760;48.822;9.304;2023-04-25T10:34:24;8.40;99.90
1534;DHT22;760;48.822;9.304;2023-04-25T10:36:51;8.30;99.90
1534;DHT22;760;48.822;9.304;2023-04-25T10:39:26;8.30;99.90
1534;DHT22;760;48.822;9.304;2023-04-25T10:41:56;8.30;99.90
1534;DHT22;760;48.822;9.304;2023-04-25T10:44:22;8.20;99.90
1534;DHT22;760;48.822;9.304;2023-04-25T10:46:48;8.20;99.90
1534;DHT22;760;48.822;9.304;2023-04-25T10:49:38;8.20;99.90
1534;DHT22;760;48.822;9.304;2023-04-25T10:52:27;8.20;99.90
1534;DHT22;760;48.822;9.304;2023-04-25T10:54:56;8.10;99.90
1534;DHT22;760;48.822;9.304;2023-04-25T10:59:59;8.10;99.90
1534;DHT22;760;48.822;9.304;2023-04-25T11:02:26;8.00;99.90
1534;DHT22;760;48.822;9.304;2023-04-25T11:04:53;8.00;99.90
1534;DHT22;760;48.822;9.304;2023-04-25T11:09:53;7.90;99.90
1534;DHT22;760;48.822;9.304;2023-04-25T11:12:19;7.90;99.90
1534;DHT22;760;48.822;9.304;2023-04-25T11:14:44;8.00;99.90
1534;DHT22;760;48.822;9.304;2023-04-25T11:17:11;8.00;99.90
1534;DHT22;760;48.822;9.304;2023-04-25T11:19:36;8.00;99.90
1534;DHT22;760;48.822;9.304;2023-04-25T11:22:03;8.00;99.90
1534;DHT22;760;48.822;9.304;2023-04-25T11:24:31;8.10;99.90
1534;DHT22;760;48.822;9.304;2023-04-25T11:27:03;8.10;99.90
1534;DHT22;760;48.822;9.304;2023-04-25T11:29:30;8.20;99.90
1534;DHT22;760;48.822;9.304;2023-04-25T11:31:57;8.30;99.90
1534;DHT22;760;48.822;9.304;2023-04-25T11:34:27;8.40;99.90
1534;DHT22;760;48.822;9.304;2023-04-25T11:36:55;8.50;99.90
1534;DHT22;760;48.822;9.304;2023-04-25T11:39:25;8.60;99.90
1534;DHT22;760;48.822;9.304;2023-04-25T11:41:51;8.80;99.90
1534;DHT22;760;48.822;9.304;2023-04-25T11:44:18;8.90;99.90
1534;DHT22;760;48.822;9.304;2023-04-25T11:46:44;9.10;99.90
1534;DHT22;760;48.822;9.304;2023-04-25T11:49:10;9.20;99.90
1534;DHT22;760;48.822;9.304;2023-04-25T11:51:43;9.30;99.90
1534;DHT22;760;48.822;9.304;2023-04-25T11:54:10;9.40;99.90
1534;DHT22;760;48.822;9.304;2023-04-25T11:56:37;9.60;99.90
1534;DHT22;760;48.822;9.304;2023-04-25T11:59:05;9.70;99.90
1534;DHT22;760;48.822;9.304;2023-04-25T12:01:35;9.80;99.90
1534;DHT22;760;48.822;9.304;2023-04-25T12:04:16;9.90;99.90
1534;DHT22;760;48.822;9.304;2023-04-25T12:06:44;10.00;99.90
1534;DHT22;760;48.822;9.304;2023-04-25T12:09:13;10.10;99.90
1534;DHT22;760;48.822;9.304;2023-04-25T12:11:46;10.30;99.90
1534;DHT22;760;48.822;9.304;2023-04-25T12:14:24;10.40;99.90
1534;DHT22;760;48.822;9.304;2023-04-25T12:16:50;10.40;99.90
1534;DHT22;760;48.822;9.304;2023-04-25T12:19:17;10.30;99.90
1534;DHT22;760;48.822;9.304;2023-04-25T12:21:44;10.30;99.90
1534;DHT22;760;48.822;9.304;2023-04-25T12:24:14;10.20;99.90
1534;DHT22;760;48.822;9.304;2023-04-25T12:27:06;10.30;99.90
1534;DHT22;760;48.822;9.304;2023-04-25T12:29:34;10.30;99.90
1534;DHT22;760;48.822;9.304;2023-04-25T12:31:59;10.30;99.90
1534;DHT22;760;48.822;9.304;2023-04-25T12:34:27;10.50;99.90
1534;DHT22;760;48.822;9.304;2023-04-25T12:36:53;10.50;99.90
1534;DHT22;760;48.822;9.304;2023-04-25T12:39:23;10.60;99.90
1534;DHT22;760;48.822;9.304;2023-04-25T12:41:52;10.60;99.90
1534;DHT22;760;48.822;9.304;2023-04-25T12:44:21;10.70;99.90
1534;DHT22;760;48.822;9.304;2023-04-25T12:46:47;10.70;99.90
1534;DHT22;760;48.822;9.304;2023-04-25T12:49:13;10.80;99.90
1534;DHT22;760;48.822;9.304;2023-04-25T12:51:39;10.80;99.90
1534;DHT22;760;48.822;9.304;2023-04-25T12:54:05;10.80;99.90
1534;DHT22;760;48.822;9.304;2023-04-25T12:56:32;10.80;99.90
1534;DHT22;760;48.822;9.304;2023-04-25T12:58:58;10.70;99.90
1534;DHT22;760;48.822;9.304;2023-04-25T13:01:25;10.80;99.90
1534;DHT22;760;48.822;9.304;2023-04-25T13:03:52;10.90;99.90
1534;DHT22;760;48.822;9.304;2023-04-25T13:06:18;11.10;99.90
1534;DHT22;760;48.822;9.304;2023-04-25T13:08:45;11.40;99.90
1534;DHT22;760;48.822;9.304;2023-04-25T13:11:10;11.80;99.90
1534;DHT22;760;48.822;9.304;2023-04-25T13:13:37;12.00;99.90
1534;DHT22;760;48.822;9.304;2023-04-25T13:16:03;12.20;99.90
1534;DHT22;760;48.822;9.304;2023-04-25T13:18:30;12.30;99.90
1534;DHT22;760;48.822;9.304;2023-04-25T13:20:56;12.40;99.90
1534;DHT22;760;48.822;9.304;2023-04-25T13:23:22;12.40;99.90
1534;DHT22;760;48.822;9.304;2023-04-25T13:25:48;12.40;99.90
1534;DHT22;760;48.822;9.304;2023-04-25T13:28:14;12.40;99.90
1534;DHT22;760;48.822;9.304;2023-04-25T13:30:40;12.40;99.90
1534;DHT22;760;48.822;9.304;2023-04-25T13:33:06;12.50;99.90
1534;DHT22;760;48.822;9.304;2023-04-25T13:35:32;12.60;99.90
1534;DHT22;760;48.822;9.304;2023-04-25T13:37:58;12.60;99.90
1534;DHT22;760;48.822;9.304;2023-04-25T13:40:24;12.70;99.90
1534;DHT22;760;48.822;9.304;2023-04-25T13:42:50;12.90;99.90
1534;DHT22;760;48.822;9.304;2023-04-25T13:45:16;13.00;99.90
1534;DHT22;760;48.822;9.304;2023-04-25T13:47:42;13.10;99.90
1534;DHT22;760;48.822;9.304;2023-04-25T13:50:08;13.10;99.90
1534;DHT22;760;48.822;9.304;2023-04-25T13:52:34;13.10;99.90
1534;DHT22;760;48.822;9.304;2023-04-25T13:54:59;13.20;99.90
1534;DHT22;760;48.822;9.304;2023-04-25T13:57:26;13.30;99.90
1534;DHT22;760;48.822;9.304;2023-04-25T13:59:51;13.40;99.90
1534;DHT22;760;48.822;9.304;2023-04-25T14:02:18;13.40;99.90
1534;DHT22;760;48.822;9.304;2023-04-25T14:04:43;13.40;99.90
1534;DHT22;760;48.822;9.304;2023-04-25T14:07:09;13.40;99.90
1534;DHT22;760;48.822;9.304;2023-04-25T14:09:36;13.30;99.90
1534;DHT22;760;48.822;9.304;2023-04-25T14:12:02;13.30;99.90
1534;DHT22;760;48.822;9.304;2023-04-25T14:14:28;13.50;99.90
1534;DHT22;760;48.822;9.304;2023-04-25T14:16:53;13.90;99.90
1534;DHT22;760;48.822;9.304;2023-04-25T14:19:20;14.00;99.90
1534;DHT22;760;48.822;9.304;2023-04-25T14:21:46;14.10;99.90
1534;DHT22;760;48.822;9.304;2023-04-25T14:24:12;14.10;99.90
1534;DHT22;760;48.822;9.304;2023-04-25T14:26:38;13.90;99.90
1534;DHT22;760;48.822;9.304;2023-04-25T14:29:05;13.70;99.90
1534;DHT22;760;48.822;9.304;2023-04-25T14:31:32;13.60;99.90
1534;DHT22;760;48.822;9.304;2023-04-25T14:33:58;13.50;99.90
1534;DHT22;760;48.822;9.304;2023-04-25T14:36:23;13.50;99.90
1534;DHT22;760;48.822;9.304;2023-04-25T14:38:49;13.50;99.90
1534;DHT22;760;48.822;9.304;2023-04-25T14:41:15;13.50;99.90
1534;DHT22;760;48.822;9.304;2023-04-25T14:43:40;13.50;99.90
1534;DHT22;760;48.822;9.304;2023-04-25T14:46:06;13.30;99.90
1534;DHT22;760;48.822;9.304;2023-04-25T14:48:33;13.30;99.90
1534;DHT22;760;48.822;9.304;2023-04-25T14:50:59;13.20;99.90
1534;DHT22;760;48.822;9.304;2023-04-25T14:53:25;13.10;99.90
1534;DHT22;760;48.822;9.304;2023-04-25T14:55:52;13.10;99.90
1534;DHT22;760;48.822;9.304;2023-04-25T14:58:17;13.20;99.90
1534;DHT22;760;48.822;9.304;2023-04-25T15:00:43;13.30;99.90
1534;DHT22;760;48.822;9.304;2023-04-25T15:03:09;13.30;99.90
1534;DHT22;760;48.822;9.304;2023-04-25T15:05:37;13.40;99.90
1534;DHT22;760;48.822;9.304;2023-04-25T15:08:03;13.40;99.90
1534;DHT22;760;48.822;9.304;2023-04-25T15:10:29;13.50;99.90
1534;DHT22;760;48.822;9.304;2023-04-25T15:12:54;13.60;99.90
1534;DHT22;760;48.822;9.304;2023-04-25T15:15:20;13.60;99.90
1534;DHT22;760;48.822;9.304;2023-04-25T15:17:47;13.60;99.90
1534;DHT22;760;48.822;9.304;2023-04-25T15:20:13;13.50;99.90
1534;DHT22;760;48.822;9.304;2023-04-25T15:22:41;13.40;99.90
1534;DHT22;760;48.822;9.304;2023-04-25T15:25:07;13.20;99.90
1534;DHT22;760;48.822;9.304;2023-04-25T15:27:34;13.10;99.90
1534;DHT22;760;48.822;9.304;2023-04-25T15:30:04;13.00;99.90
1534;DHT22;760;48.822;9.304;2023-04-25T15:32:31;13.00;99.90
1534;DHT22;760;48.822;9.304;2023-04-25T15:34:56;13.00;99.90
1534;DHT22;760;48.822;9.304;2023-04-25T15:37:22;12.80;99.90
1534;DHT22;760;48.822;9.304;2023-04-25T15:39:47;12.70;99.90
1534;DHT22;760;48.822;9.304;2023-04-25T15:42:13;12.70;99.90
1534;DHT22;760;48.822;9.304;2023-04-25T15:44:39;12.70;99.90
1534;DHT22;760;48.822;9.304;2023-04-25T15:47:04;12.70;99.90
1534;DHT22;760;48.822;9.304;2023-04-25T15:49:30;12.60;99.90
1534;DHT22;760;48.822;9.304;2023-04-25T15:51:55;12.50;99.90
1534;DHT22;760;48.822;9.304;2023-04-25T15:54:21;12.50;99.90
1534;DHT22;760;48.822;9.304;2023-04-25T15:56:47;12.60;99.90
1534;DHT22;760;48.822;9.304;2023-04-25T15:59:13;12.50;99.90
1534;DHT22;760;48.822;9.304;2023-04-25T16:01:38;12.60;99.90
1534;DHT22;760;48.822;9.304;2023-04-25T16:04:04;12.70;99.90
1534;DHT22;760;48.822;9.304;2023-04-25T16:06:30;12.80;99.90
1534;DHT22;760;48.822;9.304;2023-04-25T16:08:56;12.70;99.90
1534;DHT22;760;48.822;9.304;2023-04-25T16:11:25;12.60;99.90
1534;DHT22;760;48.822;9.304;2023-04-25T16:13:50;12.50;99.90
1534;DHT22;760;48.822;9.304;2023-04-25T16:16:16;12.50;99.90
1534;DHT22;760;48.822;9.304;2023-04-25T16:18:41;12.50;99.90
1534;DHT22;760;48.822;9.304;2023-04-25T16:21:07;12.40;99.90
1534;DHT22;760;48.822;9.304;2023-04-25T16:23:33;12.30;99.90
1534;DHT22;760;48.822;9.304;2023-04-25T16:25:58;12.30;99.90
1534;DHT22;760;48.822;9.304;2023-04-25T16:28:24;12.20;99.90
1534;DHT22;760;48.822;9.304;2023-04-25T16:30:50;12.10;99.90
1534;DHT22;760;48.822;9.304;2023-04-25T16:33:15;12.00;99.90
1534;DHT22;760;48.822;9.304;2023-04-25T16:35:41;12.00;99.90
1534;DHT22;760;48.822;9.304;2023-04-25T16:38:07;12.00;99.90
1534;DHT22;760;48.822;9.304;2023-04-25T16:40:32;11.90;99.90
1534;DHT22;760;48.822;9.304;2023-04-25T16:42:58;11.90;99.90
1534;DHT22;760;48.822;9.304;2023-04-25T16:45:23;11.90;99.90
1534;DHT22;760;48.822;9.304;2023-04-25T16:47:50;11.80;99.90
1534;DHT22;760;48.822;9.304;2023-04-25T16:50:17;11.80;99.90
1534;DHT22;760;48.822;9.304;2023-04-25T16:52:43;11.80;99.90
1534;DHT22;760;48.822;9.304;2023-04-25T16:55:08;11.70;99.90
1534;DHT22;760;48.822;9.304;2023-04-25T16:57:35;11.60;99.90
1534;DHT22;760;48.822;9.304;2023-04-25T17:00:03;11.60;99.90
1534;DHT22;760;48.822;9.304;2023-04-25T17:02:29;11.60;99.90
1534;DHT22;760;48.822;9.304;2023-04-25T17:04:55;11.50;99.90
1534;DHT22;760;48.822;9.304;2023-04-25T17:07:20;11.40;99.90
1534;DHT22;760;48.822;9.304;2023-04-25T17:09:49;11.40;99.90
1534;DHT22;760;48.822;9.304;2023-04-25T17:12:15;11.30;99.90
1534;DHT22;760;48.822;9.304;2023-04-25T17:14:41;11.20;99.90
1534;DHT22;760;48.822;9.304;2023-04-25T17:17:07;11.10;99.90
1534;DHT22;760;48.822;9.304;2023-04-25T17:19:33;11.10;99.90
1534;DHT22;760;48.822;9.304;2023-04-25T17:21:58;11.10;99.90
1534;DHT22;760;48.822;9.304;2023-04-25T17:24:26;10.90;99.90
1534;DHT22;760;48.822;9.304;2023-04-25T17:26:52;10.90;99.90
1534;DHT22;760;48.822;9.304;2023-04-25T17:29:17;10.90;99.90
1534;DHT22;760;48.822;9.304;2023-04-25T17:31:43;10.80;99.90
1534;DHT22;760;48.822;9.304;2023-04-25T17:34:09;10.80;99.90
1534;DHT22;760;48.822;9.304;2023-04-25T17:36:37;10.70;99.90
1534;DHT22;760;48.822;9.304;2023-04-25T17:39:03;10.60;99.90
1534;DHT22;760;48.822;9.304;2023-04-25T17:41:30;10.60;99.90
1534;DHT22;760;48.822;9.304;2023-04-25T17:43:56;10.50;99.90
1534;DHT22;760;48.822;9.304;2023-04-25T17:46:21;10.40;99.90
1534;DHT22;760;48.822;9.304;2023-04-25T17:48:47;10.40;99.90
1534;DHT22;760;48.822;9.304;2023-04-25T17:51:13;10.30;99.90
1534;DHT22;760;48.822;9.304;2023-04-25T17:53:39;10.20;99.90
1534;DHT22;760;48.822;9.304;2023-04-25T17:56:05;10.00;99.90
1534;DHT22;760;48.822;9.304;2023-04-25T17:58:32;9.90;99.90
1534;DHT22;760;48.822;9.304;2023-04-25T18:00:57;9.80;99.90
1534;DHT22;760;48.822;9.304;2023-04-25T18:03:23;9.60;99.90
1534;DHT22;760;48.822;9.304;2023-04-25T18:05:49;9.50;99.90
1534;DHT22;760;48.822;9.304;2023-04-25T18:08:14;9.40;99.90
1534;DHT22;760;48.822;9.304;2023-04-25T18:10:40;9.30;99.90
1534;DHT22;760;48.822;9.304;2023-04-25T18:13:06;9.10;99.90
1534;DHT22;760;48.822;9.304;2023-04-25T18:15:33;9.10;99.90
1534;DHT22;760;48.822;9.304;2023-04-25T18:17:59;9.00;99.90
1534;DHT22;760;48.822;9.304;2023-04-25T18:20:27;9.00;99.90
1534;DHT22;760;48.822;9.304;2023-04-25T18:22:52;8.90;99.90
1534;DHT22;760;48.822;9.304;2023-04-25T18:25:18;8.80;99.90
1534;DHT22;760;48.822;9.304;2023-04-25T18:27:44;8.80;99.90
1534;DHT22;760;48.822;9.304;2023-04-25T18:30:12;8.80;99.90
1534;DHT22;760;48.822;9.304;2023-04-25T18:32:38;8.80;99.90
1534;DHT22;760;48.822;9.304;2023-04-25T18:35:05;8.80;99.90
1534;DHT22;760;48.822;9.304;2023-04-25T18:37:31;8.70;99.90
1534;DHT22;760;48.822;9.304;2023-04-25T18:39:56;8.70;99.90
1534;DHT22;760;48.822;9.304;2023-04-25T18:42:22;8.70;99.90
1534;DHT22;760;48.822;9.304;2023-04-25T18:44:48;8.70;99.90
1534;DHT22;760;48.822;9.304;2023-04-25T18:47:15;8.60;99.90
1534;DHT22;760;48.822;9.304;2023-04-25T18:49:41;8.60;99.90
1534;DHT22;760;48.822;9.304;2023-04-25T18:52:07;8.50;99.90
1534;DHT22;760;48.822;9.304;2023-04-25T18:54:35;8.50;99.90
1534;DHT22;760;48.822;9.304;2023-04-25T18:57:01;8.40;99.90
1534;DHT22;760;48.822;9.304;2023-04-25T18:59:27;8.40;99.90
1534;DHT22;760;48.822;9.304;2023-04-25T19:01:53;8.50;99.90
1534;DHT22;760;48.822;9.304;2023-04-25T19:04:19;8.40;99.90
1534;DHT22;760;48.822;9.304;2023-04-25T19:06:45;8.40;99.90
1534;DHT22;760;48.822;9.304;2023-04-25T19:09:10;8.40;99.90
1534;DHT22;760;48.822;9.304;2023-04-25T19:11:37;8.50;99.90
1534;DHT22;760;48.822;9.304;2023-04-25T19:14:03;8.50;99.90
1534;DHT22;760;48.822;9.304;2023-04-25T19:16:29;8.50;99.90
1534;DHT22;760;48.822;9.304;2023-04-25T19:18:58;8.60;99.90
1534;DHT22;760;48.822;9.304;2023-04-25T19:21:26;8.50;99.90
1534;DHT22;760;48.822;9.304;2023-04-25T19:23:51;8.50;99.90
1534;DHT22;760;48.822;9.304;2023-04-25T19:26:18;8.50;99.90
1534;DHT22;760;48.822;9.304;2023-04-25T19:28:43;8.50;99.90
1534;DHT22;760;48.822;9.304;2023-04-25T19:31:09;8.50;99.90
1534;DHT22;760;48.822;9.304;2023-04-25T19:33:36;8.50;99.90
1534;DHT22;760;48.822;9.304;2023-04-25T19:36:01;8.40;99.90
1534;DHT22;760;48.822;9.304;2023-04-25T19:38:27;8.40;99.90
1534;DHT22;760;48.822;9.304;2023-04-25T19:40:53;8.40;99.90
1534;DHT22;760;48.822;9.304;2023-04-25T19:43:18;8.40;99.90
1534;DHT22;760;48.822;9.304;2023-04-25T19:45:44;8.50;99.90
1534;DHT22;760;48.822;9.304;2023-04-25T19:48:10;8.50;99.90
1534;DHT22;760;48.822;9.304;2023-04-25T19:50:36;8.40;99.90
1534;DHT22;760;48.822;9.304;2023-04-25T19:53:02;8.40;99.90
1534;DHT22;760;48.822;9.304;2023-04-25T19:55:28;8.40;99.90
1534;DHT22;760;48.822;9.304;2023-04-25T19:57:54;8.40;99.90
1534;DHT22;760;48.822;9.304;2023-04-25T20:00:19;8.30;99.90
1534;DHT22;760;48.822;9.304;2023-04-25T20:02:46;8.30;99.90
1534;DHT22;760;48.822;9.304;2023-04-25T20:05:16;8.30;99.90
1534;DHT22;760;48.822;9.304;2023-04-25T20:07:42;8.30;99.90
1534;DHT22;760;48.822;9.304;2023-04-25T20:10:08;8.30;99.90
1534;DHT22;760;48.822;9.304;2023-04-25T20:12:35;8.30;99.90
1534;DHT22;760;48.822;9.304;2023-04-25T20:15:08;8.30;99.90
1534;DHT22;760;48.822;9.304;2023-04-25T20:17:34;8.30;99.90
1534;DHT22;760;48.822;9.304;2023-04-25T20:20:00;8.40;99.90
1534;DHT22;760;48.822;9.304;2023-04-25T20:22:26;8.40;99.90
1534;DHT22;760;48.822;9.304;2023-04-25T20:24:56;8.40;99.90
1534;DHT22;760;48.822;9.304;2023-04-25T20:27:22;8.40;99.90
1534;DHT22;760;48.822;9.304;2023-04-25T20:29:47;8.40;99.90
1534;DHT22;760;48.822;9.304;2023-04-25T20:32:13;8.40;99.90
1534;DHT22;760;48.822;9.304;2023-04-25T20:34:38;8.40;99.90